Time;durP1;ratioP1;P1;durP2;ratioP2;P2;SDS_P1;SDS_P2;PMS_P1;PMS_P2;Temp;Humidity;BMP_temperature;BMP_pressure;BME280_temperature;BME280_humidity;BME280_pressure;Samples;Min_cycle;Max_cycle;Signal;HPM_P1;HPM_P2
2022/04/12 00:00:29;;;;;;;2.93;1.60;;;;;;;;;;4952957;28;20262;-60
2022/04/12 00:02:56;;;;;;;1.90;1.67;;;;;;;;;;4955053;28;20218;-60
2022/04/12 00:05:23;;;;;;;1.53;1.47;;;;;;;;;;4957485;28;20209;-59
2022/04/12 00:07:50;;;;;;;2.00;1.43;;;;;;;;;;4955938;28;20203;-60
2022/04/12 00:10:17;;;;;;;3.57;1.97;;;;;;;;;;4951238;28;20207;-59
2022/04/12 00:12:46;;;;;;;1.90;1.80;;;;;;;;;;4948279;29;20261;-60
2022/04/12 00:15:13;;;;;;;1.47;1.47;;;;;;;;;;4956678;28;20206;-60
2022/04/12 00:20:26;;;;;;;1.93;1.83;;;;;;;;;;4956125;28;20280;-59
2022/04/12 00:22:53;;;;;;;2.50;1.67;;;;;;;;;;4956082;28;20237;-59
2022/04/12 00:25:22;;;;;;;1.60;1.50;;;;;;;;;;4956222;28;20277;-59
2022/04/12 00:27:51;;;;;;;1.83;1.37;;;;;;;;;;4951672;28;20211;-59
2022/04/12 00:30:18;;;;;;;1.73;1.63;;;;;;;;;;4947645;29;20238;-59
2022/04/12 00:32:46;;;;;;;2.00;1.90;;;;;;;;;;4949425;29;20203;-60
2022/04/12 00:35:13;;;;;;;1.63;1.53;;;;;;;;;;4947367;29;20297;-59
2022/04/12 00:37:40;;;;;;;1.70;1.60;;;;;;;;;;4949055;29;20218;-60
2022/04/12 00:40:08;;;;;;;1.70;1.60;;;;;;;;;;4948988;29;20218;-60
2022/04/12 00:42:36;;;;;;;1.70;1.67;;;;;;;;;;4946779;29;20206;-59
2022/04/12 00:45:05;;;;;;;1.90;1.80;;;;;;;;;;4951248;28;20558;-59
2022/04/12 00:47:32;;;;;;;1.80;1.70;;;;;;;;;;4950312;29;20569;-59
2022/04/12 00:49:59;;;;;;;1.60;1.50;;;;;;;;;;4951794;29;20686;-59
2022/04/12 00:52:28;;;;;;;1.70;1.60;;;;;;;;;;4953198;29;20219;-60
2022/04/12 00:54:55;;;;;;;1.60;1.50;;;;;;;;;;4950650;29;20207;-59
2022/04/12 00:57:22;;;;;;;3.10;1.53;;;;;;;;;;4951427;29;20203;-59
2022/04/12 00:59:51;;;;;;;1.83;1.67;;;;;;;;;;4952799;29;20207;-59
2022/04/12 01:02:19;;;;;;;2.27;1.40;;;;;;;;;;4952645;29;20207;-59
2022/04/12 01:04:46;;;;;;;1.60;1.50;;;;;;;;;;4953022;29;20287;-59
2022/04/12 01:07:13;;;;;;;1.40;1.30;;;;;;;;;;4949435;28;20238;-59
2022/04/12 01:09:40;;;;;;;3.40;1.50;;;;;;;;;;4958059;28;20633;-60
2022/04/12 01:12:10;;;;;;;1.70;1.60;;;;;;;;;;4960300;28;20267;-59
2022/04/12 01:14:37;;;;;;;1.40;1.30;;;;;;;;;;4957786;28;20979;-59
2022/04/12 01:17:06;;;;;;;1.90;1.80;;;;;;;;;;4960170;28;20270;-59
2022/04/12 01:19:34;;;;;;;1.10;1.10;;;;;;;;;;4959217;28;20669;-60
2022/04/12 01:22:03;;;;;;;1.57;1.57;;;;;;;;;;4961005;28;20648;-60
2022/04/12 01:24:32;;;;;;;1.70;1.60;;;;;;;;;;4961448;28;20717;-61
2022/04/12 01:27:00;;;;;;;2.50;1.60;;;;;;;;;;4942201;28;20327;-58
2022/04/12 01:29:27;;;;;;;1.80;1.70;;;;;;;;;;4950645;29;20620;-58
2022/04/12 01:31:54;;;;;;;1.50;1.50;;;;;;;;;;4951865;29;20207;-58
2022/04/12 01:34:21;;;;;;;1.87;1.63;;;;;;;;;;4953163;29;20767;-58
2022/04/12 01:36:48;;;;;;;1.57;1.57;;;;;;;;;;4951108;29;20219;-58
2022/04/12 01:39:15;;;;;;;1.47;1.37;;;;;;;;;;4949409;29;20297;-58
2022/04/12 01:41:44;;;;;;;1.10;1.10;;;;;;;;;;4946820;29;20262;-58
2022/04/12 01:44:11;;;;;;;1.70;1.60;;;;;;;;;;4938390;29;20231;-58
2022/04/12 01:46:38;;;;;;;4.50;1.67;;;;;;;;;;4949703;29;20784;-59
2022/04/12 01:49:05;;;;;;;2.13;1.70;;;;;;;;;;4949260;29;20211;-59
2022/04/12 01:51:32;;;;;;;1.60;1.50;;;;;;;;;;4953079;29;20702;-59
2022/04/12 01:53:59;;;;;;;2.03;1.90;;;;;;;;;;4939571;29;20215;-59
2022/04/12 01:56:26;;;;;;;2.63;1.97;;;;;;;;;;4942211;29;20219;-59
2022/04/12 01:58:56;;;;;;;2.63;2.43;;;;;;;;;;4941314;29;20644;-59
2022/04/12 02:01:23;;;;;;;2.47;2.27;;;;;;;;;;4934395;29;20279;-59
2022/04/12 02:03:50;;;;;;;4.47;3.27;;;;;;;;;;4945519;29;20227;-59
2022/04/12 02:06:17;;;;;;;3.10;2.80;;;;;;;;;;4946470;29;20223;-59
2022/04/12 02:08:44;;;;;;;3.37;1.80;;;;;;;;;;4949121;29;20208;-59
2022/04/12 02:11:11;;;;;;;1.67;1.57;;;;;;;;;;4944038;29;20219;-59
2022/04/12 02:13:38;;;;;;;1.50;1.40;;;;;;;;;;4943156;29;20207;-59
2022/04/12 02:16:07;;;;;;;1.33;1.33;;;;;;;;;;4943152;29;20219;-59
2022/04/12 02:18:34;;;;;;;1.40;1.30;;;;;;;;;;4933972;29;20212;-59
2022/04/12 02:21:01;;;;;;;1.60;1.53;;;;;;;;;;4952464;29;20218;-59
2022/04/12 02:23:28;;;;;;;0.97;0.97;;;;;;;;;;4934551;29;20232;-59
2022/04/12 02:25:55;;;;;;;1.40;1.30;;;;;;;;;;4935520;29;20223;-59
2022/04/12 02:28:22;;;;;;;1.67;1.57;;;;;;;;;;4933419;29;20212;-59
2022/04/12 02:30:49;;;;;;;1.73;1.40;;;;;;;;;;4934881;29;20235;-59
2022/04/12 02:33:17;;;;;;;1.97;1.40;;;;;;;;;;4947525;29;20219;-59
2022/04/12 02:35:44;;;;;;;1.90;1.80;;;;;;;;;;4950204;29;20305;-59
2022/04/12 02:38:13;;;;;;;1.90;1.80;;;;;;;;;;4937361;29;20270;-59
2022/04/12 02:40:40;;;;;;;3.57;1.63;;;;;;;;;;4939888;29;20231;-60
2022/04/12 02:43:07;;;;;;;1.77;1.40;;;;;;;;;;4938043;29;20275;-60
2022/04/12 02:45:34;;;;;;;2.97;1.40;;;;;;;;;;4935685;29;20287;-60
2022/04/12 02:48:01;;;;;;;1.70;1.60;;;;;;;;;;4933599;29;20803;-60
2022/04/12 02:50:29;;;;;;;1.87;1.70;;;;;;;;;;4943123;29;20355;-60
2022/04/12 02:52:56;;;;;;;3.90;1.63;;;;;;;;;;4936088;29;20212;-61
2022/04/12 02:55:23;;;;;;;1.60;1.50;;;;;;;;;;4946660;29;20662;-60
2022/04/12 02:57:50;;;;;;;1.80;1.70;;;;;;;;;;4950218;29;20207;-60
2022/04/12 03:00:18;;;;;;;1.80;1.60;;;;;;;;;;4947842;29;20213;-60
2022/04/12 03:02:45;;;;;;;2.27;1.37;;;;;;;;;;4952254;29;20211;-60
2022/04/12 03:05:12;;;;;;;1.83;1.70;;;;;;;;;;4947457;29;20231;-60
2022/04/12 03:07:40;;;;;;;2.23;1.60;;;;;;;;;;4939612;29;20211;-60
2022/04/12 03:10:08;;;;;;;1.47;1.47;;;;;;;;;;4946213;29;20223;-60
2022/04/12 03:12:35;;;;;;;1.53;1.43;;;;;;;;;;4946297;29;20203;-60
2022/04/12 03:15:02;;;;;;;1.67;1.57;;;;;;;;;;4949206;29;20199;-58
2022/04/12 03:17:29;;;;;;;2.00;1.43;;;;;;;;;;4933076;29;20220;-58
2022/04/12 03:19:56;;;;;;;3.13;1.70;;;;;;;;;;4933301;29;20207;-59
2022/04/12 03:22:23;;;;;;;1.63;1.53;;;;;;;;;;4933411;29;20211;-59
2022/04/12 03:24:52;;;;;;;1.63;1.63;;;;;;;;;;4932804;29;20227;-59
2022/04/12 03:27:19;;;;;;;1.67;1.57;;;;;;;;;;4949905;29;20218;-58
2022/04/12 03:29:46;;;;;;;2.03;1.77;;;;;;;;;;4944438;29;20227;-58
2022/04/12 03:32:13;;;;;;;1.97;1.70;;;;;;;;;;4933975;29;20212;-58
2022/04/12 03:34:41;;;;;;;1.97;1.47;;;;;;;;;;4937173;29;20199;-58
2022/04/12 03:37:08;;;;;;;1.80;1.70;;;;;;;;;;4947064;29;20732;-58
2022/04/12 03:39:35;;;;;;;1.37;1.33;;;;;;;;;;4944378;29;20635;-58
2022/04/12 03:42:04;;;;;;;1.60;1.50;;;;;;;;;;4943730;29;20218;-58
2022/04/12 03:44:31;;;;;;;1.30;1.20;;;;;;;;;;4950306;29;20253;-60
2022/04/12 03:46:59;;;;;;;2.10;1.73;;;;;;;;;;4949610;29;20203;-60
2022/04/12 03:49:26;;;;;;;1.90;1.80;;;;;;;;;;4950962;29;20231;-59
2022/04/12 03:51:53;;;;;;;1.80;1.70;;;;;;;;;;4951450;29;20214;-59
2022/04/12 03:54:20;;;;;;;1.40;1.40;;;;;;;;;;4936172;29;20204;-60
2022/04/12 03:56:47;;;;;;;1.90;1.80;;;;;;;;;;4935550;29;20208;-59
2022/04/12 03:59:15;;;;;;;1.67;1.57;;;;;;;;;;4949402;29;20584;-59
2022/04/12 04:01:42;;;;;;;4.03;1.57;;;;;;;;;;4932564;29;20212;-60
2022/04/12 04:04:10;;;;;;;2.20;1.70;;;;;;;;;;4938422;29;20632;-59
2022/04/12 04:06:37;;;;;;;1.73;1.63;;;;;;;;;;4947544;29;20310;-59
2022/04/12 04:09:04;;;;;;;1.83;1.77;;;;;;;;;;4944837;29;20242;-59
2022/04/12 04:11:31;;;;;;;2.20;1.73;;;;;;;;;;4932281;29;20215;-60
2022/04/12 04:14:00;;;;;;;1.70;1.60;;;;;;;;;;4948746;29;20203;-59
2022/04/12 04:16:28;;;;;;;1.90;1.80;;;;;;;;;;4932300;29;20211;-60
2022/04/12 04:18:55;;;;;;;1.60;1.50;;;;;;;;;;4944864;28;20212;-60
2022/04/12 04:21:22;;;;;;;6.30;1.97;;;;;;;;;;4939473;29;20298;-60
2022/04/12 04:23:49;;;;;;;1.80;1.73;;;;;;;;;;4947133;29;20279;-59
2022/04/12 04:26:16;;;;;;;1.83;1.60;;;;;;;;;;4946061;29;20234;-59
2022/04/12 04:28:44;;;;;;;1.60;1.60;;;;;;;;;;4943140;29;20703;-58
2022/04/12 04:31:11;;;;;;;2.80;2.00;;;;;;;;;;4948130;29;20669;-59
2022/04/12 04:33:40;;;;;;;1.73;1.63;;;;;;;;;;4946036;29;21052;-59
2022/04/12 04:36:07;;;;;;;1.67;1.60;;;;;;;;;;4944723;29;20215;-58
2022/04/12 04:38:34;;;;;;;1.50;1.50;;;;;;;;;;4952370;29;20219;-58
2022/04/12 04:41:01;;;;;;;1.57;1.47;;;;;;;;;;4935462;29;20204;-58
2022/04/12 04:43:29;;;;;;;2.00;1.90;;;;;;;;;;4943096;29;20207;-59
2022/04/12 04:45:56;;;;;;;2.13;1.93;;;;;;;;;;4950416;29;20282;-59
2022/04/12 04:48:23;;;;;;;2.93;1.87;;;;;;;;;;4947954;29;20208;-59
2022/04/12 04:50:51;;;;;;;1.93;1.83;;;;;;;;;;4939784;29;20210;-59
2022/04/12 04:53:18;;;;;;;1.93;1.83;;;;;;;;;;4944848;29;20270;-59
2022/04/12 04:55:47;;;;;;;2.37;2.27;;;;;;;;;;4937053;29;20200;-59
2022/04/12 04:58:14;;;;;;;1.70;1.60;;;;;;;;;;4949399;29;20239;-60
2022/04/12 05:00:43;;;;;;;2.47;2.27;;;;;;;;;;4939408;29;20207;-59
2022/04/12 05:03:10;;;;;;;1.97;1.87;;;;;;;;;;4941929;29;20212;-59
2022/04/12 05:05:37;;;;;;;1.60;1.50;;;;;;;;;;4944906;29;20297;-58
2022/04/12 05:08:06;;;;;;;2.00;1.83;;;;;;;;;;4947776;29;20219;-59
2022/04/12 05:10:33;;;;;;;1.57;1.47;;;;;;;;;;4954263;29;20218;-59
2022/04/12 05:13:01;;;;;;;1.70;1.60;;;;;;;;;;4951862;29;20214;-59
2022/04/12 05:15:28;;;;;;;2.20;2.10;;;;;;;;;;4942100;29;20207;-59
2022/04/12 05:17:55;;;;;;;2.13;2.03;;;;;;;;;;4942313;29;20208;-59
2022/04/12 05:20:24;;;;;;;3.23;2.03;;;;;;;;;;4935259;29;20305;-58
2022/04/12 05:22:51;;;;;;;2.23;1.77;;;;;;;;;;4942829;29;20208;-58
2022/04/12 05:25:19;;;;;;;1.63;1.53;;;;;;;;;;4933178;29;20782;-59
2022/04/12 05:27:46;;;;;;;1.93;1.63;;;;;;;;;;4943070;29;20282;-59
2022/04/12 05:30:14;;;;;;;2.10;1.70;;;;;;;;;;4939479;28;20243;-59
2022/04/12 05:32:41;;;;;;;1.83;1.57;;;;;;;;;;4970875;28;20218;-59
2022/04/12 05:35:09;;;;;;;2.07;1.97;;;;;;;;;;4939026;28;20292;-59
2022/04/12 05:37:41;;;;;;;2.10;2.00;;;;;;;;;;4937739;29;20745;-59
2022/04/12 05:40:10;;;;;;;3.77;2.20;;;;;;;;;;4945826;29;20273;-61
2022/04/12 05:42:38;;;;;;;2.40;2.20;;;;;;;;;;4952259;29;20208;-60
2022/04/12 05:45:06;;;;;;;1.87;1.77;;;;;;;;;;4948069;29;20784;-60
2022/04/12 05:47:40;;;;;;;2.20;1.97;;;;;;;;;;4948046;29;20203;-60
2022/04/12 05:50:08;;;;;;;1.90;1.77;;;;;;;;;;4946172;29;20210;-61
2022/04/12 05:52:35;;;;;;;1.90;1.80;;;;;;;;;;4945303;29;20213;-60
2022/04/12 05:55:02;;;;;;;2.80;2.30;;;;;;;;;;4943292;29;20295;-60
2022/04/12 05:57:29;;;;;;;1.90;1.80;;;;;;;;;;4953492;29;20222;-60
2022/04/12 05:59:58;;;;;;;2.30;2.10;;;;;;;;;;4952517;29;20237;-60
2022/04/12 06:02:25;;;;;;;1.90;1.80;;;;;;;;;;4952984;29;20207;-60
2022/04/12 06:04:52;;;;;;;2.83;2.37;;;;;;;;;;4938055;29;20235;-60
2022/04/12 06:07:19;;;;;;;4.23;2.57;;;;;;;;;;4932501;29;20220;-59
2022/04/12 06:09:46;;;;;;;2.77;2.20;;;;;;;;;;4938324;29;20262;-60
2022/04/12 06:12:13;;;;;;;2.03;1.93;;;;;;;;;;4934172;29;20211;-59
2022/04/12 06:14:40;;;;;;;2.43;2.30;;;;;;;;;;4934340;29;20741;-59
2022/04/12 06:17:11;;;;;;;2.70;2.50;;;;;;;;;;4934244;29;20329;-59
2022/04/12 06:19:38;;;;;;;2.10;2.00;;;;;;;;;;4938474;29;20768;-59
2022/04/12 06:22:06;;;;;;;4.33;2.70;;;;;;;;;;4933978;29;20247;-59
2022/04/12 06:24:33;;;;;;;1.83;1.63;;;;;;;;;;4948158;29;20264;-59
2022/04/12 06:27:00;;;;;;;2.20;2.00;;;;;;;;;;4951592;29;20239;-59
2022/04/12 06:29:28;;;;;;;1.63;1.53;;;;;;;;;;4951882;29;20231;-59
2022/04/12 06:31:55;;;;;;;2.63;2.40;;;;;;;;;;4945013;29;20207;-59
2022/04/12 06:34:23;;;;;;;2.00;1.90;;;;;;;;;;4947380;29;20265;-60
2022/04/12 06:36:50;;;;;;;2.00;1.90;;;;;;;;;;4941503;29;20216;-59
2022/04/12 06:39:17;;;;;;;2.43;2.13;;;;;;;;;;4947839;29;20215;-61
2022/04/12 06:41:44;;;;;;;1.90;1.80;;;;;;;;;;4941890;29;20219;-61
2022/04/12 06:44:11;;;;;;;2.87;2.30;;;;;;;;;;4930639;29;20211;-61
2022/04/12 06:46:38;;;;;;;2.87;2.13;;;;;;;;;;4937226;29;20220;-61
2022/04/12 06:49:05;;;;;;;2.33;2.13;;;;;;;;;;4949447;29;20214;-60
2022/04/12 06:51:34;;;;;;;2.93;2.57;;;;;;;;;;4952340;29;20586;-60
2022/04/12 06:54:01;;;;;;;2.87;2.33;;;;;;;;;;4949867;29;20214;-60
2022/04/12 06:56:28;;;;;;;2.10;2.00;;;;;;;;;;4950973;29;20250;-60
2022/04/12 06:58:56;;;;;;;2.57;2.37;;;;;;;;;;4952378;29;20218;-60
2022/04/12 07:01:23;;;;;;;2.40;2.20;;;;;;;;;;4941732;29;20214;-60
2022/04/12 07:03:50;;;;;;;2.13;2.03;;;;;;;;;;4951924;29;20214;-60
2022/04/12 07:06:17;;;;;;;2.53;2.33;;;;;;;;;;4950718;29;20239;-60
2022/04/12 07:08:45;;;;;;;1.97;1.87;;;;;;;;;;4948509;29;20700;-60
2022/04/12 07:11:12;;;;;;;1.93;1.70;;;;;;;;;;4931417;29;20219;-60
2022/04/12 07:13:39;;;;;;;2.10;2.00;;;;;;;;;;4933768;29;20671;-60
2022/04/12 07:16:06;;;;;;;3.20;2.30;;;;;;;;;;4942832;29;20215;-60
2022/04/12 07:18:33;;;;;;;1.80;1.70;;;;;;;;;;4933703;29;20204;-60
2022/04/12 07:21:00;;;;;;;1.83;1.73;;;;;;;;;;4950070;29;20219;-60
2022/04/12 07:23:27;;;;;;;2.30;2.10;;;;;;;;;;4944797;29;20230;-60
2022/04/12 07:25:55;;;;;;;1.73;1.50;;;;;;;;;;4935110;29;20235;-60
2022/04/12 07:28:22;;;;;;;1.87;1.77;;;;;;;;;;4938434;29;20222;-60
2022/04/12 07:30:49;;;;;;;3.17;2.30;;;;;;;;;;4932676;29;20244;-60
2022/04/12 07:33:17;;;;;;;1.80;1.70;;;;;;;;;;4932838;29;20212;-59
2022/04/12 07:35:44;;;;;;;3.90;2.50;;;;;;;;;;4933983;29;20526;-60
2022/04/12 07:38:12;;;;;;;2.43;2.20;;;;;;;;;;4940124;29;20258;-62
2022/04/12 07:40:39;;;;;;;3.00;2.20;;;;;;;;;;4943975;29;20614;-61
2022/04/12 07:43:08;;;;;;;1.80;1.70;;;;;;;;;;4945069;29;20208;-59
2022/04/12 07:45:35;;;;;;;3.50;2.27;;;;;;;;;;4950038;29;20230;-60
2022/04/12 07:48:02;;;;;;;2.00;1.80;;;;;;;;;;4935036;29;20219;-60
2022/04/12 07:50:29;;;;;;;2.60;2.40;;;;;;;;;;4934098;29;20577;-60
2022/04/12 07:52:56;;;;;;;2.30;2.10;;;;;;;;;;4951167;28;20270;-60
2022/04/12 07:55:23;;;;;;;1.90;1.80;;;;;;;;;;4951124;29;20199;-61
2022/04/12 07:57:50;;;;;;;2.53;2.03;;;;;;;;;;4951112;29;20221;-61
2022/04/12 08:00:19;;;;;;;1.23;1.20;;;;;;;;;;4947757;29;20208;-61
2022/04/12 08:02:46;;;;;;;1.80;1.73;;;;;;;;;;4932413;29;20211;-60
2022/04/12 08:05:13;;;;;;;1.93;1.80;;;;;;;;;;4932265;29;20219;-61
2022/04/12 08:07:47;;;;;;;1.90;1.80;;;;;;;;;;4938994;29;20580;-60
2022/04/12 08:10:14;;;;;;;2.23;1.70;;;;;;;;;;4932161;29;20250;-60
2022/04/12 08:12:41;;;;;;;2.03;1.70;;;;;;;;;;4931509;29;20220;-60
2022/04/12 08:15:08;;;;;;;2.97;1.83;;;;;;;;;;4931490;29;20235;-60
2022/04/12 08:17:37;;;;;;;1.80;1.70;;;;;;;;;;4934488;29;20207;-61
2022/04/12 08:20:05;;;;;;;1.77;1.65;;;;;;;;;;4950603;29;20218;-62
2022/04/12 08:22:32;;;;;;;1.63;1.52;;;;;;;;;;4932300;29;20219;-60
2022/04/12 08:24:59;;;;;;;2.63;1.95;;;;;;;;;;4931250;29;20238;-60
2022/04/12 08:27:27;;;;;;;1.60;1.60;;;;;;;;;;4932168;29;20709;-60
2022/04/12 08:29:54;;;;;;;2.22;2.00;;;;;;;;;;4950360;29;20243;-61
2022/04/12 08:32:21;;;;;;;1.75;1.65;;;;;;;;;;4950342;29;20696;-61
2022/04/12 08:34:50;;;;;;;2.03;1.88;;;;;;;;;;4950502;29;20588;-60
2022/04/12 08:37:17;;;;;;;3.13;1.63;;;;;;;;;;4944955;29;20211;-57
2022/04/12 08:39:44;;;;;;;3.20;1.70;;;;;;;;;;4947658;29;20546;-58
2022/04/12 08:42:11;;;;;;;2.13;1.73;;;;;;;;;;4942988;28;20203;-61
2022/04/12 08:44:39;;;;;;;1.67;1.58;;;;;;;;;;4955059;28;20432;-62
2022/04/12 08:47:08;;;;;;;2.35;1.80;;;;;;;;;;4950406;28;20262;-60
2022/04/12 08:49:38;;;;;;;2.42;1.85;;;;;;;;;;4949481;29;20222;-61
2022/04/12 08:52:11;;;;;;;3.17;1.92;;;;;;;;;;4950317;29;20226;-61
2022/04/12 08:54:38;;;;;;;1.02;1.00;;;;;;;;;;4933543;29;20319;-61
2022/04/12 08:57:05;;;;;;;3.67;1.70;;;;;;;;;;4931156;29;20225;-61
2022/04/12 08:59:33;;;;;;;1.50;1.50;;;;;;;;;;4945778;29;20215;-58
2022/04/12 09:02:00;;;;;;;1.55;1.55;;;;;;;;;;4950050;29;20218;-60
2022/04/12 09:04:27;;;;;;;1.85;1.75;;;;;;;;;;4949975;28;20207;-61
2022/04/12 09:06:55;;;;;;;2.05;1.83;;;;;;;;;;4951536;29;20239;-61
2022/04/12 09:09:24;;;;;;;2.22;2.13;;;;;;;;;;4951561;29;20511;-61
2022/04/12 09:11:58;;;;;;;1.77;1.67;;;;;;;;;;4953192;29;20215;-61
2022/04/12 09:14:25;;;;;;;1.58;1.48;;;;;;;;;;4938602;29;20215;-61
2022/04/12 09:16:53;;;;;;;2.53;1.70;;;;;;;;;;4934503;29;20240;-61
2022/04/12 09:19:35;;;;;;;1.70;1.60;;;;;;;;;;4942871;29;20211;-61
2022/04/12 09:22:02;;;;;;;2.22;1.88;;;;;;;;;;4951040;29;20211;-61
2022/04/12 09:24:30;;;;;;;3.17;1.88;;;;;;;;;;4953140;29;20277;-61
2022/04/12 09:26:58;;;;;;;1.70;1.60;;;;;;;;;;4952635;29;20246;-61
2022/04/12 09:29:29;;;;;;;1.60;1.60;;;;;;;;;;4942652;29;20282;-61
2022/04/12 09:31:59;;;;;;;2.20;2.05;;;;;;;;;;4953458;29;20275;-60
2022/04/12 09:34:28;;;;;;;1.13;1.13;;;;;;;;;;4953880;29;20595;-59
2022/04/12 09:36:55;;;;;;;2.15;1.17;;;;;;;;;;4953597;29;20254;-60
2022/04/12 09:39:22;;;;;;;1.42;1.40;;;;;;;;;;4948997;29;20224;-60
2022/04/12 09:41:51;;;;;;;1.60;1.50;;;;;;;;;;4935323;29;20793;-60
2022/04/12 09:44:19;;;;;;;1.70;1.60;;;;;;;;;;4948718;29;20211;-60
2022/04/12 09:46:48;;;;;;;1.73;1.63;;;;;;;;;;4951360;29;20231;-60
2022/04/12 09:49:15;;;;;;;2.15;1.80;;;;;;;;;;4948921;29;20650;-60
2022/04/12 09:51:43;;;;;;;1.88;1.77;;;;;;;;;;4953335;29;20225;-60
2022/04/12 09:54:22;;;;;;;1.60;1.50;;;;;;;;;;4952426;29;20254;-60
2022/04/12 09:56:50;;;;;;;1.70;1.60;;;;;;;;;;4944269;29;20215;-61
2022/04/12 09:59:18;;;;;;;1.75;1.65;;;;;;;;;;4944172;29;20615;-59
2022/04/12 10:01:45;;;;;;;1.60;1.55;;;;;;;;;;4943389;29;20200;-62
2022/04/12 10:04:15;;;;;;;1.70;1.52;;;;;;;;;;4958565;28;20222;-59
2022/04/12 10:06:43;;;;;;;2.72;1.73;;;;;;;;;;4948200;29;20605;-58
2022/04/12 10:09:13;;;;;;;1.52;1.42;;;;;;;;;;4964913;28;20210;-58
2022/04/12 10:11:40;;;;;;;2.35;1.38;;;;;;;;;;4957686;28;20211;-58
2022/04/12 10:14:09;;;;;;;4.55;1.90;;;;;;;;;;4943780;29;20218;-59
2022/04/12 10:16:36;;;;;;;1.75;1.65;;;;;;;;;;4946878;28;20210;-67
2022/04/12 10:19:03;;;;;;;1.60;1.50;;;;;;;;;;4936686;29;20211;-58
2022/04/12 10:21:31;;;;;;;1.45;1.35;;;;;;;;;;4933884;29;20291;-59
2022/04/12 10:23:58;;;;;;;1.70;1.67;;;;;;;;;;4939350;29;20207;-59
2022/04/12 10:26:26;;;;;;;1.30;1.30;;;;;;;;;;4936186;29;20686;-58
2022/04/12 10:28:54;;;;;;;1.52;1.52;;;;;;;;;;4948226;28;20783;-58
2022/04/12 10:31:24;;;;;;;1.85;1.52;;;;;;;;;;4945911;29;20216;-58
2022/04/12 10:34:04;;;;;;;1.50;1.40;;;;;;;;;;4945665;29;20211;-59
2022/04/12 10:36:46;;;;;;;1.58;1.48;;;;;;;;;;4937422;29;20537;-58
2022/04/12 10:39:13;;;;;;;1.48;1.38;;;;;;;;;;4944788;29;20211;-58
2022/04/12 10:41:42;;;;;;;1.85;1.58;;;;;;;;;;4947462;29;20230;-58
2022/04/12 10:44:19;;;;;;;1.33;1.23;;;;;;;;;;4944329;29;20278;-58
2022/04/12 10:46:48;;;;;;;1.30;1.30;;;;;;;;;;4944203;29;20709;-58
2022/04/12 10:49:19;;;;;;;1.48;1.38;;;;;;;;;;4939642;29;20750;-58
2022/04/12 10:51:47;;;;;;;1.75;1.65;;;;;;;;;;4946169;28;20297;-58
2022/04/12 10:54:29;;;;;;;2.95;0.95;;;;;;;;;;4962117;28;20203;-58
2022/04/12 10:57:11;;;;;;;1.17;1.17;;;;;;;;;;4935708;29;20274;-59
2022/04/12 10:59:41;;;;;;;1.27;1.13;;;;;;;;;;4929864;29;20227;-58
2022/04/12 11:02:14;;;;;;;1.25;1.20;;;;;;;;;;4940590;28;20218;-58
2022/04/12 11:04:41;;;;;;;1.13;1.13;;;;;;;;;;4940349;28;20206;-57
2022/04/12 11:07:08;;;;;;;1.33;1.30;;;;;;;;;;4963683;28;20345;-59
2022/04/12 11:09:35;;;;;;;1.23;1.23;;;;;;;;;;4951639;28;20766;-57
2022/04/12 11:12:03;;;;;;;1.15;1.15;;;;;;;;;;4941829;29;20218;-57
2022/04/12 11:14:33;;;;;;;1.02;1.02;;;;;;;;;;4946790;29;20211;-56
2022/04/12 11:17:01;;;;;;;1.33;1.20;;;;;;;;;;4947326;29;20210;-57
2022/04/12 11:19:41;;;;;;;1.25;1.25;;;;;;;;;;4946636;29;20271;-56
2022/04/12 11:22:11;;;;;;;1.75;1.42;;;;;;;;;;4929009;29;20765;-69
2022/04/12 11:24:39;;;;;;;1.83;1.20;;;;;;;;;;4943377;29;20199;-58
2022/04/12 11:27:08;;;;;;;1.10;1.05;;;;;;;;;;4938946;28;20239;-58
2022/04/12 11:29:35;;;;;;;1.95;0.80;;;;;;;;;;4940627;28;20284;-57
2022/04/12 11:32:03;;;;;;;0.82;0.77;;;;;;;;;;4944811;29;20215;-57
2022/04/12 11:34:32;;;;;;;1.13;1.13;;;;;;;;;;4937417;29;20207;-58
2022/04/12 11:37:01;;;;;;;1.88;0.80;;;;;;;;;;4939410;29;20207;-56
2022/04/12 11:39:29;;;;;;;0.73;0.73;;;;;;;;;;4943152;29;20223;-56
2022/04/12 11:42:00;;;;;;;0.90;0.90;;;;;;;;;;4932643;29;20220;-57
2022/04/12 11:44:27;;;;;;;0.95;0.95;;;;;;;;;;4945475;28;20837;-58
2022/04/12 11:46:57;;;;;;;0.95;0.80;;;;;;;;;;4939490;29;20577;-58
2022/04/12 11:49:28;;;;;;;2.35;1.00;;;;;;;;;;4937333;29;20211;-57
2022/04/12 11:51:58;;;;;;;1.63;0.98;;;;;;;;;;4941422;29;20242;-57
2022/04/12 11:54:28;;;;;;;0.82;0.82;;;;;;;;;;4946382;29;20261;-58
2022/04/12 11:56:59;;;;;;;0.80;0.80;;;;;;;;;;4946400;29;20214;-57
2022/04/12 11:59:26;;;;;;;0.75;0.70;;;;;;;;;;4929305;29;20291;-58
2022/04/12 12:01:56;;;;;;;0.80;0.80;;;;;;;;;;4938343;29;20222;-58
2022/04/12 12:04:28;;;;;;;0.82;0.82;;;;;;;;;;4929826;29;20606;-58
2022/04/12 12:06:58;;;;;;;0.80;0.80;;;;;;;;;;4935025;29;20231;-58
2022/04/12 12:09:25;;;;;;;0.50;0.50;;;;;;;;;;4944815;29;20218;-61
2022/04/12 12:11:52;;;;;;;0.65;0.65;;;;;;;;;;4928078;29;20230;-59
2022/04/12 12:14:20;;;;;;;0.60;0.60;;;;;;;;;;4935133;29;20227;-58
2022/04/12 12:17:00;;;;;;;1.65;0.70;;;;;;;;;;4960249;28;20285;-59
2022/04/12 12:19:27;;;;;;;0.60;0.60;;;;;;;;;;4930535;29;20239;-59
2022/04/12 12:21:55;;;;;;;0.80;0.80;;;;;;;;;;4949846;28;20214;-59
2022/04/12 12:24:23;;;;;;;0.98;0.98;;;;;;;;;;4933129;28;20218;-59
2022/04/12 12:26:54;;;;;;;0.50;0.50;;;;;;;;;;4947076;28;20239;-59
2022/04/12 12:29:22;;;;;;;0.80;0.80;;;;;;;;;;4935874;29;20263;-60
2022/04/12 12:31:49;;;;;;;0.70;0.70;;;;;;;;;;4946395;29;20215;-60
2022/04/12 12:34:28;;;;;;;0.63;0.60;;;;;;;;;;4942323;29;20304;-60
2022/04/12 12:36:55;;;;;;;0.68;0.68;;;;;;;;;;4928433;29;20211;-59
2022/04/12 12:39:26;;;;;;;0.55;0.55;;;;;;;;;;4940611;28;20694;-58
2022/04/12 12:41:56;;;;;;;0.80;0.80;;;;;;;;;;4946115;28;20220;-58
2022/04/12 12:44:24;;;;;;;0.50;0.50;;;;;;;;;;4948507;28;20302;-58
2022/04/12 12:46:54;;;;;;;0.50;0.50;;;;;;;;;;4939702;28;20314;-58
2022/04/12 12:49:21;;;;;;;0.55;0.55;;;;;;;;;;4936357;29;20662;-59
2022/04/12 12:51:48;;;;;;;1.20;0.60;;;;;;;;;;4932223;29;20210;-60
2022/04/12 12:54:16;;;;;;;0.50;0.50;;;;;;;;;;4942604;29;20226;-60
2022/04/12 12:56:47;;;;;;;0.75;0.70;;;;;;;;;;4946627;29;20297;-60
2022/04/12 12:59:15;;;;;;;0.60;0.60;;;;;;;;;;4948886;29;20213;-62
2022/04/12 13:01:47;;;;;;;0.65;0.65;;;;;;;;;;4943089;29;20275;-60
2022/04/12 13:04:23;;;;;;;0.75;0.60;;;;;;;;;;4949748;29;20215;-60
2022/04/12 13:07:00;;;;;;;0.60;0.60;;;;;;;;;;4943210;29;20597;-60
2022/04/12 13:09:27;;;;;;;0.60;0.60;;;;;;;;;;4946073;29;20309;-59
2022/04/12 13:11:55;;;;;;;2.65;0.70;;;;;;;;;;4942737;29;20207;-60
2022/04/12 13:14:23;;;;;;;0.70;0.70;;;;;;;;;;4945639;29;20220;-60
2022/04/12 13:16:50;;;;;;;0.80;0.73;;;;;;;;;;4945735;29;20276;-61
2022/04/12 13:19:24;;;;;;;0.63;0.63;;;;;;;;;;4949565;29;20317;-60
2022/04/12 13:21:51;;;;;;;1.33;1.00;;;;;;;;;;4946156;29;20219;-59
2022/04/12 13:24:18;;;;;;;0.80;0.80;;;;;;;;;;4946733;29;21213;-59
2022/04/12 13:26:45;;;;;;;0.88;0.88;;;;;;;;;;4946194;29;20423;-59
2022/04/12 13:29:14;;;;;;;0.90;0.90;;;;;;;;;;4947560;29;20768;-59
2022/04/12 13:31:41;;;;;;;0.80;0.80;;;;;;;;;;4935098;29;20207;-59
2022/04/12 13:34:08;;;;;;;0.77;0.77;;;;;;;;;;4956465;28;20909;-59
2022/04/12 13:36:35;;;;;;;1.27;0.80;;;;;;;;;;4945997;29;20718;-59
2022/04/12 13:39:03;;;;;;;1.25;0.80;;;;;;;;;;4939668;29;20670;-59
2022/04/12 13:41:31;;;;;;;0.93;0.93;;;;;;;;;;4931811;29;20226;-59
2022/04/12 13:43:58;;;;;;;1.27;1.20;;;;;;;;;;4939795;29;20303;-58
2022/04/12 13:46:26;;;;;;;1.15;1.02;;;;;;;;;;4940929;29;20214;-59
2022/04/12 13:48:53;;;;;;;0.98;0.98;;;;;;;;;;4944774;29;20246;-59
2022/04/12 13:51:21;;;;;;;0.50;0.50;;;;;;;;;;4940832;28;20300;-60
2022/04/12 13:53:48;;;;;;;0.80;0.80;;;;;;;;;;4936538;29;20582;-59
2022/04/12 13:56:15;;;;;;;0.50;0.50;;;;;;;;;;4926590;29;20212;-61
2022/04/12 13:58:42;;;;;;;0.60;0.60;;;;;;;;;;4930651;29;20207;-58
2022/04/12 14:01:09;;;;;;;1.35;0.70;;;;;;;;;;4937605;29;20219;-60
2022/04/12 14:03:37;;;;;;;0.85;0.70;;;;;;;;;;4945076;29;20561;-61
2022/04/12 14:06:05;;;;;;;0.63;0.63;;;;;;;;;;4934546;29;20504;-64
2022/04/12 14:08:32;;;;;;;0.70;0.70;;;;;;;;;;4942199;29;20387;-61
2022/04/12 14:11:00;;;;;;;0.60;0.60;;;;;;;;;;4936707;29;20216;-61
2022/04/12 14:13:27;;;;;;;0.70;0.70;;;;;;;;;;4933011;29;20211;-61
2022/04/12 14:15:56;;;;;;;2.47;0.47;;;;;;;;;;4938338;29;20629;-61
2022/04/12 14:18:23;;;;;;;0.77;0.63;;;;;;;;;;4931001;29;20208;-61
2022/04/12 14:20:53;;;;;;;1.10;0.50;;;;;;;;;;4931989;29;20474;-61
2022/04/12 14:23:20;;;;;;;1.58;0.60;;;;;;;;;;4936243;29;20295;-61
2022/04/12 14:25:49;;;;;;;0.60;0.60;;;;;;;;;;4929382;29;20310;-61
2022/04/12 14:28:16;;;;;;;0.70;0.70;;;;;;;;;;4944916;29;20230;-58
2022/04/12 14:30:43;;;;;;;0.50;0.50;;;;;;;;;;4949337;29;20243;-59
2022/04/12 14:33:10;;;;;;;0.57;0.52;;;;;;;;;;4943151;29;20211;-58
2022/04/12 14:35:37;;;;;;;0.50;0.50;;;;;;;;;;4930253;29;20215;-58
2022/04/12 14:38:06;;;;;;;0.57;0.57;;;;;;;;;;4940169;29;20589;-63
2022/04/12 14:40:34;;;;;;;0.60;0.60;;;;;;;;;;4941569;29;20248;-58
2022/04/12 14:43:01;;;;;;;1.00;0.60;;;;;;;;;;4944490;28;20207;-58
2022/04/12 14:45:28;;;;;;;0.60;0.60;;;;;;;;;;4947965;28;20210;-58
2022/04/12 14:47:55;;;;;;;0.95;0.60;;;;;;;;;;4932726;29;20231;-59
2022/04/12 14:50:22;;;;;;;0.60;0.60;;;;;;;;;;4945286;28;20785;-59